createdAt,value
2022-09-05T00:00:11.979Z,17.79
2022-09-05T00:03:12.360Z,17.71
2022-09-05T00:06:10.997Z,17.62
2022-09-05T00:09:30.625Z,17.68
2022-09-05T00:12:19.812Z,17.66
2022-09-05T00:15:30.922Z,17.64
2022-09-05T00:23:38.653Z,17.51
2022-09-05T00:24:36.584Z,17.38
2022-09-05T00:25:39.318Z,17.44
2022-09-05T00:28:38.602Z,17.23
2022-09-05T00:31:59.166Z,17.21
2022-09-05T00:35:44.843Z,17.20
2022-09-05T00:38:36.832Z,17.19
2022-09-05T00:41:26.261Z,17.02
2022-09-05T00:44:19.869Z,16.96
2022-09-05T00:47:57.236Z,16.73
2022-09-05T00:51:03.277Z,16.81
2022-09-05T00:54:41.139Z,16.69
2022-09-05T00:58:08.025Z,16.57
2022-09-05T01:00:58.871Z,16.53
2022-09-05T01:04:11.312Z,16.56
2022-09-05T01:07:10.510Z,16.41
2022-09-05T01:10:26.295Z,16.25
2022-09-05T01:13:41.349Z,16.23
2022-09-05T01:16:45.618Z,16.19
2022-09-05T01:20:19.751Z,16.12
2022-09-05T01:23:20.495Z,16.15
2022-09-05T01:26:11.302Z,16.07
2022-09-05T01:29:19.618Z,16.10
2022-09-05T01:32:32.234Z,16.15
2022-09-05T01:35:57.810Z,16.03
2022-09-05T01:40:10.437Z,15.97
2022-09-05T01:43:25.637Z,15.71
2022-09-05T01:46:59.176Z,15.67
2022-09-05T01:50:12.475Z,15.73
2022-09-05T01:53:25.566Z,15.68
2022-09-05T01:57:09.882Z,15.58
2022-09-05T02:00:16.796Z,15.76
2022-09-05T02:03:37.914Z,15.78
2022-09-05T02:06:56.062Z,15.72
2022-09-05T02:10:09.525Z,15.72
2022-09-05T02:13:28.975Z,15.53
2022-09-05T02:16:38.145Z,15.73
2022-09-05T02:19:30.771Z,15.76
2022-09-05T02:22:29.202Z,15.72
2022-09-05T02:26:00.327Z,15.75
2022-09-05T02:29:02.319Z,15.70
2022-09-05T02:31:56.859Z,15.52
2022-09-05T02:35:14.841Z,15.59
2022-09-05T02:43:43.720Z,15.57
2022-09-05T02:45:17.493Z,15.63
2022-09-05T02:45:53.350Z,15.62
2022-09-05T02:48:57.404Z,15.65
2022-09-05T02:57:29.248Z,15.57
2022-09-05T02:57:33.109Z,15.67
2022-09-05T02:59:36.617Z,15.56
2022-09-05T03:02:40.380Z,15.70
2022-09-05T03:05:37.357Z,15.66
2022-09-05T03:08:43.703Z,15.75
2022-09-05T03:12:28.382Z,15.70
2022-09-05T03:15:54.129Z,15.74
2022-09-05T03:18:56.148Z,15.83
2022-09-05T03:21:58.714Z,15.80
2022-09-05T03:25:22.788Z,15.94
2022-09-05T03:28:33.195Z,16.00
2022-09-05T03:31:54.068Z,15.99
2022-09-05T03:35:19.629Z,15.96
2022-09-05T03:38:37.814Z,15.92
2022-09-05T03:41:49.244Z,15.83
2022-09-05T03:45:02.998Z,15.90
2022-09-05T03:48:32.251Z,15.81
2022-09-05T03:57:10.413Z,15.50
2022-09-05T03:57:14.380Z,15.70
2022-09-05T03:59:41.357Z,15.41
2022-09-05T04:08:06.333Z,15.29
2022-09-05T04:08:30.794Z,15.12
2022-09-05T04:10:01.937Z,15.32
2022-09-05T04:13:08.919Z,15.14
2022-09-05T04:16:23.284Z,14.95
2022-09-05T04:19:30.037Z,15.04
2022-09-05T04:22:26.589Z,15.06
2022-09-05T04:25:42.429Z,14.94
2022-09-05T04:29:18.129Z,14.92
2022-09-05T04:32:35.214Z,14.95
2022-09-05T04:35:30.849Z,14.97
2022-09-05T04:38:36.410Z,14.97
2022-09-05T04:41:39.410Z,14.91
2022-09-05T04:44:39.825Z,15.05
2022-09-05T04:47:39.423Z,15.10
2022-09-05T04:50:35.221Z,15.15
2022-09-05T04:53:57.016Z,15.10
2022-09-05T04:56:49.675Z,15.07
2022-09-05T05:03:39.208Z,15.05
2022-09-05T05:06:14.656Z,15.08
2022-09-05T05:06:38.050Z,15.05
2022-09-05T05:09:40.049Z,15.27
2022-09-05T05:17:59.392Z,15.16
2022-09-05T05:18:08.141Z,15.18
2022-09-05T05:19:47.297Z,15.13
2022-09-05T05:23:15.560Z,15.16
2022-09-05T05:26:09.512Z,15.20
2022-09-05T05:29:19.309Z,15.20
2022-09-05T05:32:08.133Z,15.20
2022-09-05T05:35:24.052Z,15.33
2022-09-05T05:38:17.866Z,15.58
2022-09-05T05:41:46.654Z,15.69
2022-09-05T05:44:37.128Z,15.73
2022-09-05T05:47:32.644Z,15.63
2022-09-05T05:50:40.628Z,15.81
2022-09-05T05:53:52.532Z,15.84
2022-09-05T05:57:41.234Z,15.84
2022-09-05T06:00:55.063Z,15.79
2022-09-05T06:04:27.617Z,15.95
2022-09-05T06:08:23.873Z,16.00
2022-09-05T06:14:50.946Z,16.07
2022-09-05T06:15:10.726Z,16.18
2022-09-05T06:18:40.394Z,16.48
2022-09-05T06:22:13.235Z,16.65
2022-09-05T06:25:17.074Z,16.91
2022-09-05T06:28:25.601Z,17.22
2022-09-05T06:31:36.925Z,17.57
2022-09-05T06:35:00.158Z,17.86
2022-09-05T06:38:35.983Z,18.13
2022-09-05T06:41:45.444Z,18.44
2022-09-05T06:45:27.954Z,18.65
2022-09-05T06:49:32.108Z,18.83
2022-09-05T06:52:57.118Z,18.98
2022-09-05T06:56:26.623Z,19.26
2022-09-05T06:59:45.279Z,19.56
2022-09-05T07:02:59.354Z,19.71
2022-09-05T07:06:00.958Z,19.94
2022-09-05T07:09:08.493Z,20.18
2022-09-05T07:12:30.003Z,20.47
2022-09-05T07:15:36.197Z,20.78
2022-09-05T07:18:47.702Z,20.91
2022-09-05T07:22:47.039Z,21.26
2022-09-05T07:25:37.602Z,21.38
2022-09-05T07:28:29.520Z,21.59
2022-09-05T07:31:27.644Z,21.78
2022-09-05T07:34:34.593Z,21.97
2022-09-05T07:37:41.852Z,21.84
2022-09-05T07:40:34.173Z,21.84
2022-09-05T07:43:35.396Z,22.02
2022-09-05T07:46:32.400Z,22.29
2022-09-05T07:49:23.657Z,22.62
2022-09-05T07:56:48.138Z,22.77
2022-09-05T07:56:53.304Z,23.23
2022-09-05T07:58:52.322Z,23.36
2022-09-05T08:01:47.928Z,23.59
2022-09-05T08:04:39.403Z,23.84
2022-09-05T08:07:46.988Z,24.60
2022-09-05T08:11:23.245Z,25.19
2022-09-05T08:14:44.297Z,25.53
2022-09-05T08:17:47.730Z,26.22
2022-09-05T08:20:53.984Z,25.97
2022-09-05T08:23:53.132Z,25.81
2022-09-05T08:27:04.635Z,26.05
2022-09-05T08:30:26.335Z,26.26
2022-09-05T08:33:23.390Z,26.53
2022-09-05T08:36:31.425Z,27.47
2022-09-05T08:39:26.136Z,28.43
2022-09-05T08:43:56.006Z,28.87
2022-09-05T08:46:42.190Z,29.41
2022-09-05T08:49:37.014Z,29.82
2022-09-05T08:52:57.849Z,29.71
2022-09-05T08:56:03.822Z,29.59
2022-09-05T08:59:32.837Z,30.54
2022-09-05T09:02:49.061Z,31.19
2022-09-05T09:06:13.261Z,32.43
2022-09-05T09:09:17.064Z,32.06
2022-09-05T09:12:32.432Z,32.84
2022-09-05T09:15:51.290Z,33.77
2022-09-05T09:19:12.406Z,33.49
2022-09-05T09:22:40.960Z,33.06
2022-09-05T09:25:42.009Z,32.24
2022-09-05T09:29:02.278Z,30.98
2022-09-05T09:32:14.325Z,29.42
2022-09-05T09:35:24.249Z,28.82
2022-09-05T09:38:36.966Z,28.64
2022-09-05T09:42:01.477Z,28.24
2022-09-05T09:45:41.475Z,28.81
2022-09-05T09:49:00.350Z,28.83
2022-09-05T09:52:21.134Z,28.74
2022-09-05T09:55:41.712Z,28.80
2022-09-05T09:59:28.630Z,29.50
2022-09-05T10:06:01.621Z,29.46
2022-09-05T10:10:48.190Z,28.45
2022-09-05T10:10:49.905Z,28.88
2022-09-05T10:13:08.139Z,28.43
2022-09-05T10:16:15.823Z,28.77
2022-09-05T10:20:10.399Z,28.88
2022-09-05T10:23:33.660Z,29.07
2022-09-05T10:27:01.503Z,29.82
2022-09-05T10:29:53.331Z,29.76
2022-09-05T10:35:04.804Z,29.95
2022-09-05T10:36:27.034Z,29.82
2022-09-05T10:39:19.040Z,29.55
2022-09-05T10:42:35.049Z,29.40
2022-09-05T10:45:54.266Z,29.13
2022-09-05T10:48:59.292Z,28.93
2022-09-05T10:52:04.084Z,28.64
2022-09-05T10:55:26.238Z,28.55
2022-09-05T11:01:14.816Z,28.54
2022-09-05T11:02:27.453Z,28.34
2022-09-05T11:05:32.281Z,28.39
2022-09-05T11:08:44.019Z,28.53
2022-09-05T11:11:47.691Z,28.56
2022-09-05T11:14:53.191Z,28.45
2022-09-05T11:17:51.835Z,27.88
2022-09-05T11:20:51.442Z,27.72
2022-09-05T11:23:56.926Z,27.76
2022-09-05T11:27:25.652Z,27.81
2022-09-05T11:30:34.471Z,28.02
2022-09-05T11:38:39.191Z,27.94
2022-09-05T11:39:58.053Z,28.03
2022-09-05T11:41:17.067Z,28.16
2022-09-05T11:44:25.815Z,28.12
2022-09-05T11:47:54.233Z,28.05
2022-09-05T11:50:53.579Z,28.11
2022-09-05T11:53:55.117Z,28.04
2022-09-05T11:57:32.788Z,28.18
2022-09-05T12:00:46.730Z,28.28
2022-09-05T12:04:08.671Z,28.24
2022-09-05T12:07:52.691Z,28.00
2022-09-05T12:11:30.066Z,28.02
2022-09-05T12:14:54.922Z,28.00
2022-09-05T12:18:21.645Z,28.05
2022-09-05T12:21:26.257Z,28.05
2022-09-05T12:27:35.273Z,27.99
2022-09-05T12:29:33.602Z,28.00
2022-09-05T12:32:59.560Z,28.09
2022-09-05T12:36:03.950Z,28.03
2022-09-05T12:40:56.525Z,28.16
2022-09-05T12:42:14.591Z,27.98
2022-09-05T12:45:47.494Z,27.93
2022-09-05T12:49:07.016Z,27.95
2022-09-05T12:52:33.797Z,27.85
2022-09-05T12:55:39.735Z,27.89
2022-09-05T13:02:58.168Z,27.90
2022-09-05T13:03:03.634Z,27.86
2022-09-05T13:05:02.727Z,27.88
2022-09-05T13:07:56.965Z,27.70
2022-09-05T13:14:46.545Z,27.94
2022-09-05T13:14:56.826Z,27.87
2022-09-05T13:17:15.732Z,27.81
2022-09-05T13:20:17.072Z,27.78
2022-09-05T13:23:32.173Z,27.73
2022-09-05T13:26:33.900Z,27.61
2022-09-05T13:29:41.242Z,27.60
2022-09-05T13:38:08.054Z,27.79
2022-09-05T13:38:11.972Z,27.90
2022-09-05T13:39:14.304Z,27.93
2022-09-05T13:42:03.604Z,27.89
2022-09-05T13:44:59.231Z,28.06
2022-09-05T13:48:15.882Z,28.19
2022-09-05T13:51:37.020Z,28.33
2022-09-05T13:54:39.664Z,28.55
2022-09-05T13:57:54.477Z,28.71
2022-09-05T14:01:49.785Z,29.00
2022-09-05T14:05:20.720Z,28.92
2022-09-05T14:08:37.492Z,28.92
2022-09-05T14:11:53.532Z,29.08
2022-09-05T14:15:10.166Z,28.79
2022-09-05T14:18:26.603Z,28.73
2022-09-05T14:21:17.941Z,28.57
2022-09-05T14:24:16.813Z,28.62
2022-09-05T14:27:31.783Z,28.63
2022-09-05T14:32:22.269Z,28.68
2022-09-05T14:37:39.803Z,28.77
2022-09-05T14:38:15.196Z,28.71
2022-09-05T14:42:09.456Z,28.68
2022-09-05T14:45:36.877Z,28.70
2022-09-05T14:48:45.698Z,28.64
2022-09-05T14:51:39.252Z,28.72
2022-09-05T15:02:43.731Z,28.70
2022-09-05T15:02:57.667Z,28.73
2022-09-05T15:04:38.607Z,28.55
2022-09-05T15:07:44.249Z,28.45
2022-09-05T15:12:16.062Z,28.37
2022-09-05T15:14:08.376Z,28.47
2022-09-05T15:17:05.034Z,28.48
2022-09-05T15:20:07.312Z,28.40
2022-09-05T15:22:57.619Z,28.29
2022-09-05T15:25:59.411Z,28.25
2022-09-05T15:28:50.771Z,28.26
2022-09-05T15:32:21.737Z,28.18
2022-09-05T15:35:19.576Z,28.14
2022-09-05T15:38:29.994Z,28.11
2022-09-05T15:41:27.642Z,28.02
2022-09-05T15:44:24.454Z,28.08
2022-09-05T15:47:23.885Z,27.95
2022-09-05T15:50:21.804Z,28.01
2022-09-05T15:53:26.355Z,28.04
2022-09-05T15:56:25.248Z,27.92
2022-09-05T15:59:13.902Z,27.97
2022-09-05T16:02:12.281Z,28.09
2022-09-05T16:10:28.011Z,28.05
2022-09-05T16:10:46.860Z,28.05
2022-09-05T16:12:14.002Z,28.05
2022-09-05T16:15:19.828Z,28.04
2022-09-05T16:23:24.935Z,28.02
2022-09-05T16:23:24.939Z,28.04
2022-09-05T16:24:59.864Z,28.06
2022-09-05T16:28:14.929Z,28.04
2022-09-05T16:31:05.406Z,27.98
2022-09-05T16:33:53.295Z,27.88
2022-09-05T16:37:08.653Z,27.94
2022-09-05T16:40:13.733Z,27.95
2022-09-05T16:43:19.623Z,27.94
2022-09-05T16:46:32.616Z,27.98
2022-09-05T16:49:42.208Z,27.85
2022-09-05T16:52:56.284Z,27.93
2022-09-05T16:55:57.084Z,27.84
2022-09-05T16:58:53.386Z,27.90
2022-09-05T17:02:06.608Z,27.82
2022-09-05T17:05:35.056Z,27.73
2022-09-05T17:08:33.182Z,27.62
2022-09-05T17:11:30.064Z,27.56
2022-09-05T17:14:21.897Z,27.62
2022-09-05T17:17:55.273Z,27.54
2022-09-05T17:20:30.759Z,27.46
2022-09-05T17:26:42.774Z,27.34
2022-09-05T17:29:50.034Z,27.20
2022-09-05T17:33:00.530Z,26.93
2022-09-05T17:36:36.386Z,26.83
2022-09-05T17:40:03.908Z,26.66
2022-09-05T17:43:06.505Z,26.50
2022-09-05T17:46:07.280Z,26.36
2022-09-05T17:49:17.708Z,26.11
2022-09-05T17:52:19.629Z,26.05
2022-09-05T17:55:13.266Z,25.83
2022-09-05T17:58:49.718Z,25.70
2022-09-05T18:01:39.399Z,25.55
2022-09-05T18:04:50.750Z,25.39
2022-09-05T18:07:42.805Z,25.23
2022-09-05T18:11:02.319Z,25.03
2022-09-05T18:14:37.293Z,24.89
2022-09-05T18:17:52.217Z,24.71
2022-09-05T18:21:21.440Z,24.49
2022-09-05T18:25:28.398Z,24.41
2022-09-05T18:28:39.733Z,24.33
2022-09-05T18:31:42.587Z,24.22
2022-09-05T18:34:34.445Z,24.13
2022-09-05T18:37:37.517Z,24.04
2022-09-05T18:40:55.735Z,23.86
2022-09-05T18:44:01.622Z,23.80
2022-09-05T18:47:33.320Z,23.70
2022-09-05T18:50:26.266Z,23.61
2022-09-05T18:53:29.885Z,23.56
2022-09-05T18:57:19.786Z,23.54
2022-09-05T19:00:35.024Z,23.38
2022-09-05T19:03:35.157Z,23.36
2022-09-05T19:06:36.918Z,23.31
2022-09-05T19:09:29.967Z,23.18
2022-09-05T19:12:33.158Z,23.08
2022-09-05T19:15:29.716Z,23.13
2022-09-05T19:18:26.903Z,23.08
2022-09-05T19:21:21.446Z,23.00
2022-09-05T19:24:12.044Z,22.94
2022-09-05T19:28:44.455Z,22.90
2022-09-05T19:36:51.243Z,22.84
2022-09-05T19:37:02.458Z,22.59
2022-09-05T19:37:08.542Z,22.68
2022-09-05T19:46:24.806Z,22.50
2022-09-05T19:47:31.655Z,22.42
2022-09-05T19:47:46.418Z,22.36
2022-09-05T19:49:23.380Z,22.22
2022-09-05T19:52:17.745Z,22.14
2022-09-05T19:55:23.937Z,22.15
2022-09-05T19:58:22.131Z,22.05
2022-09-05T20:01:19.873Z,22.05
2022-09-05T20:04:07.731Z,21.96
2022-09-05T20:06:55.451Z,21.90
2022-09-05T20:09:49.242Z,21.85
2022-09-05T20:12:40.232Z,21.75
2022-09-05T20:15:37.007Z,21.62
2022-09-05T20:18:40.501Z,21.61
2022-09-05T20:21:30.146Z,21.40
2022-09-05T20:24:19.168Z,21.34
2022-09-05T20:27:08.285Z,21.18
2022-09-05T20:30:16.103Z,21.23
2022-09-05T20:33:13.506Z,21.18
2022-09-05T20:43:09.524Z,21.12
2022-09-05T20:43:22.127Z,21.13
2022-09-05T20:43:22.841Z,21.10
2022-09-05T20:46:17.501Z,20.94
2022-09-05T20:54:06.289Z,20.83
2022-09-05T20:54:20.332Z,20.80
2022-09-05T20:55:40.070Z,20.77
2022-09-05T20:58:31.273Z,20.78
2022-09-05T21:01:23.784Z,20.66
2022-09-05T21:04:13.891Z,20.52
2022-09-05T21:07:35.598Z,20.82
2022-09-05T21:10:25.000Z,20.88
2022-09-05T21:13:22.541Z,20.79
2022-09-05T21:16:22.398Z,20.80
2022-09-05T21:19:30.871Z,20.83
2022-09-05T21:22:18.529Z,20.80
2022-09-05T21:25:16.992Z,20.78
2022-09-05T21:28:46.054Z,20.80
2022-09-05T21:31:42.823Z,20.83
2022-09-05T21:34:32.854Z,20.75
2022-09-05T21:37:20.869Z,20.93
2022-09-05T21:40:10.497Z,20.88
2022-09-05T21:47:34.094Z,20.90
2022-09-05T21:47:49.876Z,20.95
2022-09-05T21:49:18.999Z,20.84
2022-09-05T21:52:08.209Z,20.77
2022-09-05T21:59:14.485Z,20.85
2022-09-05T21:59:18.013Z,20.72
2022-09-05T22:01:15.027Z,20.76
2022-09-05T22:04:02.978Z,20.78
2022-09-05T22:06:53.071Z,20.71
2022-09-05T22:09:40.865Z,20.73
2022-09-05T22:12:38.434Z,20.68
2022-09-05T22:15:29.586Z,20.65
2022-09-05T22:18:18.355Z,20.63
2022-09-05T22:21:33.894Z,20.67
2022-09-05T22:24:21.161Z,20.56
2022-09-05T22:27:12.478Z,20.59
2022-09-05T22:30:03.084Z,20.60
2022-09-05T22:32:50.892Z,20.61
2022-09-05T22:35:40.060Z,20.53
2022-09-05T22:38:27.819Z,20.54
2022-09-05T22:41:15.740Z,20.48
2022-09-05T22:44:04.959Z,20.46
2022-09-05T22:46:53.258Z,20.37
2022-09-05T22:49:41.374Z,20.27
2022-09-05T22:52:29.084Z,20.31
2022-09-05T22:55:17.284Z,20.16
2022-09-05T22:58:06.959Z,20.27
2022-09-05T23:00:54.720Z,20.28
2022-09-05T23:03:42.682Z,20.29
2022-09-05T23:06:30.486Z,20.21
2022-09-05T23:09:18.223Z,20.07
2022-09-05T23:12:06.019Z,20.05
2022-09-05T23:14:54.129Z,19.89
2022-09-05T23:17:42.480Z,20.06
2022-09-05T23:20:31.528Z,20.09
2022-09-05T23:23:19.292Z,19.95
2022-09-05T23:26:15.198Z,19.94
2022-09-05T23:29:02.930Z,20.04
2022-09-05T23:31:51.018Z,20.07
2022-09-05T23:34:39.059Z,20.06
2022-09-05T23:37:26.779Z,20.02
2022-09-05T23:40:21.768Z,19.94
2022-09-05T23:43:09.914Z,19.87
2022-09-05T23:45:57.847Z,19.85
2022-09-05T23:48:45.594Z,19.82
2022-09-05T23:51:33.435Z,19.75
2022-09-05T23:54:21.216Z,19.71
2022-09-05T23:57:08.907Z,19.83
2022-09-05T23:59:56.660Z,19.75
